This is the latest recevied weather packets stored in our database for station/object SQ2WB-13. If no packets are shown the sender has not sent any weather packets the latest 10 day(s).
| Time | Temp. | Humidity | Pressure | Rain* | Wind** | Luminosity | Snow |
|---|---|---|---|---|---|---|---|
| 1787686201 | 15° C | 85% | 1012.1 hPa | 0 mm | - | - | - |
| 1787685302 | 15° C | 84% | 1012.1 hPa | 0 mm | - | - | - |
| 1787684401 | 15° C | 84% | 1011.8 hPa | 0 mm | - | - | - |
| 1787683502 | 15.56° C | 83% | 1011.8 hPa | 0 mm | - | - | - |
| 1787682601 | 15.56° C | 83% | 1011.8 hPa | 0 mm | - | - | - |
| 1787681702 | 15.56° C | 81% | 1011.8 hPa | 0 mm | - | - | - |
| 1787680801 | 16.67° C | 77% | 1011.5 hPa | 0 mm | - | - | - |
| 1787679901 | 17.78° C | 74% | 1011.5 hPa | 0 mm | - | - | - |
| 1787679001 | 18.89° C | 70% | 1011.5 hPa | 0 mm | - | - | - |
| 1787678102 | 18.89° C | 67% | 1011.5 hPa | 0 mm | - | - | - |
| 1787677201 | 20° C | 62% | 1011.5 hPa | 0 mm | - | - | - |
| 1787676302 | 20.56° C | 60% | 1011.5 hPa | 0 mm | - | - | - |
| 1787675402 | 21.67° C | 57% | 1011.5 hPa | 0 mm | - | - | - |
| 1787674502 | 21.67° C | 55% | 1011.5 hPa | 0 mm | - | - | - |
| 1787673601 | 21.67° C | 59% | 1011.5 hPa | 0 mm | - | - | - |
| 1787672701 | 21.67° C | 56% | 1011.5 hPa | 0 mm | - | - | - |
| 1787671802 | 23.89° C | 51% | 1011.5 hPa | 0 mm | - | - | - |
| 1787670902 | 23.89° C | 50% | 1011.5 hPa | 0 mm | - | - | - |
| 1787670002 | 22.78° C | 52% | 1011.1 hPa | 0 mm | - | - | - |
| 1787669101 | 22.78° C | 54% | 1011.1 hPa | 0 mm | - | - | - |
| 1787668201 | 22.78° C | 53% | 1011.5 hPa | 0 mm | - | - | - |
| 1787667302 | 22.78° C | 53% | 1011.1 hPa | 0 mm | - | - | - |
| 1787666402 | 23.89° C | 48% | 1011.5 hPa | 0 mm | - | - | - |
| 1787665501 | 21.67° C | 55% | 1011.1 hPa | 0 mm | - | - | - |
| 1787664601 | 21.67° C | 53% | 1011.5 hPa | 0 mm | - | - | - |
* Rain latest hour (hover to see other rain measurements)
** Current wind speed in m/s (hover to see current wind gust speed)